sensor_id;sensor_type;location;lat;lon;timestamp;P1;durP1;ratioP1;P2;durP2;ratioP2
15398;SDS011;7797;51.428;6.756;2024-01-25T00:01:01;20.43;;;4.87;;
15398;SDS011;7797;51.428;6.756;2024-01-25T00:03:28;20.03;;;5.20;;
15398;SDS011;7797;51.428;6.756;2024-01-25T00:05:55;20.93;;;4.60;;
15398;SDS011;7797;51.428;6.756;2024-01-25T00:08:22;21.30;;;4.60;;
15398;SDS011;7797;51.428;6.756;2024-01-25T00:10:49;19.90;;;4.90;;
15398;SDS011;7797;51.428;6.756;2024-01-25T00:13:16;17.60;;;4.90;;
15398;SDS011;7797;51.428;6.756;2024-01-25T00:15:43;17.50;;;4.40;;
15398;SDS011;7797;51.428;6.756;2024-01-25T00:18:10;16.73;;;4.70;;
15398;SDS011;7797;51.428;6.756;2024-01-25T00:20:36;20.03;;;5.03;;
15398;SDS011;7797;51.428;6.756;2024-01-25T00:23:03;18.77;;;5.03;;
15398;SDS011;7797;51.428;6.756;2024-01-25T00:25:30;25.10;;;5.43;;
15398;SDS011;7797;51.428;6.756;2024-01-25T00:27:57;24.13;;;4.83;;
15398;SDS011;7797;51.428;6.756;2024-01-25T00:30:24;20.40;;;4.93;;
15398;SDS011;7797;51.428;6.756;2024-01-25T00:32:50;21.80;;;4.90;;
15398;SDS011;7797;51.428;6.756;2024-01-25T00:35:17;19.23;;;5.57;;
15398;SDS011;7797;51.428;6.756;2024-01-25T00:37:45;18.67;;;4.50;;
15398;SDS011;7797;51.428;6.756;2024-01-25T00:40:12;23.30;;;5.33;;
15398;SDS011;7797;51.428;6.756;2024-01-25T00:42:44;20.97;;;4.80;;
15398;SDS011;7797;51.428;6.756;2024-01-25T00:45:16;20.90;;;5.03;;
15398;SDS011;7797;51.428;6.756;2024-01-25T00:47:43;21.17;;;5.30;;
15398;SDS011;7797;51.428;6.756;2024-01-25T00:50:10;22.30;;;4.60;;
15398;SDS011;7797;51.428;6.756;2024-01-25T00:52:38;17.20;;;4.67;;
15398;SDS011;7797;51.428;6.756;2024-01-25T00:55:05;21.10;;;5.50;;
15398;SDS011;7797;51.428;6.756;2024-01-25T00:57:33;21.90;;;5.43;;
15398;SDS011;7797;51.428;6.756;2024-01-25T01:00:00;20.30;;;4.70;;
15398;SDS011;7797;51.428;6.756;2024-01-25T01:02:27;19.43;;;4.50;;
15398;SDS011;7797;51.428;6.756;2024-01-25T01:04:57;21.67;;;4.83;;
15398;SDS011;7797;51.428;6.756;2024-01-25T01:07:25;18.20;;;5.37;;
15398;SDS011;7797;51.428;6.756;2024-01-25T01:09:52;17.63;;;4.80;;
15398;SDS011;7797;51.428;6.756;2024-01-25T01:12:19;21.07;;;4.70;;
15398;SDS011;7797;51.428;6.756;2024-01-25T01:14:46;18.80;;;5.00;;
15398;SDS011;7797;51.428;6.756;2024-01-25T01:17:14;19.97;;;4.83;;
15398;SDS011;7797;51.428;6.756;2024-01-25T01:19:41;18.60;;;4.33;;
15398;SDS011;7797;51.428;6.756;2024-01-25T01:22:09;20.00;;;4.90;;
15398;SDS011;7797;51.428;6.756;2024-01-25T01:24:36;13.90;;;4.43;;
15398;SDS011;7797;51.428;6.756;2024-01-25T01:27:03;24.03;;;5.43;;
15398;SDS011;7797;51.428;6.756;2024-01-25T01:29:30;20.37;;;4.47;;
15398;SDS011;7797;51.428;6.756;2024-01-25T01:31:57;14.07;;;4.00;;
15398;SDS011;7797;51.428;6.756;2024-01-25T01:34:24;16.93;;;4.30;;
15398;SDS011;7797;51.428;6.756;2024-01-25T01:36:51;20.50;;;5.13;;
15398;SDS011;7797;51.428;6.756;2024-01-25T01:39:18;17.43;;;4.80;;
15398;SDS011;7797;51.428;6.756;2024-01-25T01:41:48;16.77;;;4.67;;
15398;SDS011;7797;51.428;6.756;2024-01-25T01:44:15;22.93;;;5.03;;
15398;SDS011;7797;51.428;6.756;2024-01-25T01:46:42;19.50;;;4.50;;
15398;SDS011;7797;51.428;6.756;2024-01-25T01:49:13;18.97;;;5.00;;
15398;SDS011;7797;51.428;6.756;2024-01-25T01:51:40;23.07;;;4.73;;
15398;SDS011;7797;51.428;6.756;2024-01-25T01:54:09;16.90;;;4.50;;
15398;SDS011;7797;51.428;6.756;2024-01-25T01:56:37;17.67;;;4.23;;
15398;SDS011;7797;51.428;6.756;2024-01-25T01:59:08;19.23;;;4.67;;
15398;SDS011;7797;51.428;6.756;2024-01-25T02:01:35;18.97;;;5.00;;
15398;SDS011;7797;51.428;6.756;2024-01-25T02:04:02;17.47;;;5.03;;
15398;SDS011;7797;51.428;6.756;2024-01-25T02:06:29;19.53;;;5.10;;
15398;SDS011;7797;51.428;6.756;2024-01-25T02:08:57;16.80;;;4.30;;
15398;SDS011;7797;51.428;6.756;2024-01-25T02:11:27;17.83;;;4.67;;
15398;SDS011;7797;51.428;6.756;2024-01-25T02:13:55;24.70;;;5.43;;
15398;SDS011;7797;51.428;6.756;2024-01-25T02:16:23;17.00;;;4.43;;
15398;SDS011;7797;51.428;6.756;2024-01-25T02:18:50;19.67;;;4.37;;
15398;SDS011;7797;51.428;6.756;2024-01-25T02:21:17;20.13;;;4.70;;
15398;SDS011;7797;51.428;6.756;2024-01-25T02:23:44;22.20;;;4.90;;
15398;SDS011;7797;51.428;6.756;2024-01-25T02:26:11;17.23;;;4.30;;
15398;SDS011;7797;51.428;6.756;2024-01-25T02:28:38;19.07;;;4.53;;
15398;SDS011;7797;51.428;6.756;2024-01-25T02:31:05;17.37;;;4.43;;
15398;SDS011;7797;51.428;6.756;2024-01-25T02:33:32;13.43;;;3.77;;
15398;SDS011;7797;51.428;6.756;2024-01-25T02:35:59;20.07;;;4.67;;
15398;SDS011;7797;51.428;6.756;2024-01-25T02:38:26;19.00;;;4.33;;
15398;SDS011;7797;51.428;6.756;2024-01-25T02:40:52;16.40;;;4.57;;
15398;SDS011;7797;51.428;6.756;2024-01-25T02:43:22;16.33;;;4.57;;
15398;SDS011;7797;51.428;6.756;2024-01-25T02:45:49;21.77;;;4.30;;
15398;SDS011;7797;51.428;6.756;2024-01-25T02:48:17;19.30;;;4.27;;
15398;SDS011;7797;51.428;6.756;2024-01-25T02:50:44;16.93;;;4.53;;
15398;SDS011;7797;51.428;6.756;2024-01-25T02:53:11;20.30;;;4.47;;
15398;SDS011;7797;51.428;6.756;2024-01-25T02:55:37;21.97;;;5.20;;
15398;SDS011;7797;51.428;6.756;2024-01-25T02:58:04;18.90;;;5.67;;
15398;SDS011;7797;51.428;6.756;2024-01-25T03:00:31;18.87;;;4.57;;
15398;SDS011;7797;51.428;6.756;2024-01-25T03:02:58;22.47;;;5.57;;
15398;SDS011;7797;51.428;6.756;2024-01-25T03:05:25;18.23;;;4.77;;
15398;SDS011;7797;51.428;6.756;2024-01-25T03:07:52;20.10;;;4.47;;
15398;SDS011;7797;51.428;6.756;2024-01-25T03:10:19;15.70;;;4.67;;
15398;SDS011;7797;51.428;6.756;2024-01-25T03:12:46;18.33;;;4.83;;
15398;SDS011;7797;51.428;6.756;2024-01-25T03:15:13;21.17;;;4.67;;
15398;SDS011;7797;51.428;6.756;2024-01-25T03:17:41;18.20;;;4.53;;
15398;SDS011;7797;51.428;6.756;2024-01-25T03:20:08;24.20;;;4.87;;
15398;SDS011;7797;51.428;6.756;2024-01-25T03:22:36;23.33;;;4.57;;
15398;SDS011;7797;51.428;6.756;2024-01-25T03:25:03;19.47;;;4.47;;
15398;SDS011;7797;51.428;6.756;2024-01-25T03:27:30;20.13;;;4.73;;
15398;SDS011;7797;51.428;6.756;2024-01-25T03:29:57;18.10;;;4.40;;
15398;SDS011;7797;51.428;6.756;2024-01-25T03:32:24;18.43;;;4.53;;
15398;SDS011;7797;51.428;6.756;2024-01-25T03:34:51;14.87;;;4.97;;
15398;SDS011;7797;51.428;6.756;2024-01-25T03:37:18;18.97;;;4.90;;
15398;SDS011;7797;51.428;6.756;2024-01-25T03:39:45;13.10;;;4.00;;
15398;SDS011;7797;51.428;6.756;2024-01-25T03:42:12;20.73;;;4.67;;
15398;SDS011;7797;51.428;6.756;2024-01-25T03:44:39;20.17;;;5.00;;
15398;SDS011;7797;51.428;6.756;2024-01-25T03:47:08;21.93;;;4.77;;
15398;SDS011;7797;51.428;6.756;2024-01-25T03:49:35;16.03;;;4.90;;
15398;SDS011;7797;51.428;6.756;2024-01-25T03:52:03;24.00;;;5.03;;
15398;SDS011;7797;51.428;6.756;2024-01-25T03:54:32;14.53;;;4.90;;
15398;SDS011;7797;51.428;6.756;2024-01-25T03:56:59;19.13;;;4.80;;
15398;SDS011;7797;51.428;6.756;2024-01-25T03:59:26;20.13;;;5.00;;
15398;SDS011;7797;51.428;6.756;2024-01-25T04:01:53;16.57;;;5.00;;
15398;SDS011;7797;51.428;6.756;2024-01-25T04:04:20;21.67;;;4.87;;
15398;SDS011;7797;51.428;6.756;2024-01-25T04:06:47;24.57;;;5.20;;
15398;SDS011;7797;51.428;6.756;2024-01-25T04:09:14;16.13;;;5.40;;
15398;SDS011;7797;51.428;6.756;2024-01-25T04:11:44;17.87;;;4.30;;
15398;SDS011;7797;51.428;6.756;2024-01-25T04:14:10;18.03;;;4.57;;
15398;SDS011;7797;51.428;6.756;2024-01-25T04:16:37;17.70;;;5.03;;
15398;SDS011;7797;51.428;6.756;2024-01-25T04:19:04;18.63;;;4.90;;
15398;SDS011;7797;51.428;6.756;2024-01-25T04:21:31;18.63;;;4.67;;
15398;SDS011;7797;51.428;6.756;2024-01-25T04:23:58;19.43;;;4.73;;
15398;SDS011;7797;51.428;6.756;2024-01-25T04:26:25;18.33;;;5.10;;
15398;SDS011;7797;51.428;6.756;2024-01-25T04:28:52;22.07;;;4.87;;
15398;SDS011;7797;51.428;6.756;2024-01-25T04:31:19;16.73;;;4.77;;
15398;SDS011;7797;51.428;6.756;2024-01-25T04:33:46;17.33;;;4.30;;
15398;SDS011;7797;51.428;6.756;2024-01-25T04:36:14;18.97;;;4.63;;
15398;SDS011;7797;51.428;6.756;2024-01-25T04:38:41;22.93;;;5.23;;
15398;SDS011;7797;51.428;6.756;2024-01-25T04:41:09;22.63;;;4.80;;
15398;SDS011;7797;51.428;6.756;2024-01-25T04:43:36;37.90;;;8.50;;
15398;SDS011;7797;51.428;6.756;2024-01-25T04:46:03;21.23;;;6.03;;
15398;SDS011;7797;51.428;6.756;2024-01-25T04:48:31;19.73;;;4.33;;
15398;SDS011;7797;51.428;6.756;2024-01-25T04:50:59;16.97;;;4.33;;
15398;SDS011;7797;51.428;6.756;2024-01-25T04:53:26;17.60;;;4.60;;
15398;SDS011;7797;51.428;6.756;2024-01-25T04:55:54;13.73;;;4.17;;
15398;SDS011;7797;51.428;6.756;2024-01-25T04:58:21;14.13;;;4.07;;
15398;SDS011;7797;51.428;6.756;2024-01-25T05:00:49;16.80;;;4.47;;
15398;SDS011;7797;51.428;6.756;2024-01-25T05:03:18;18.87;;;4.10;;
15398;SDS011;7797;51.428;6.756;2024-01-25T05:05:45;16.83;;;4.70;;
15398;SDS011;7797;51.428;6.756;2024-01-25T05:08:12;17.90;;;4.73;;
15398;SDS011;7797;51.428;6.756;2024-01-25T05:10:39;17.70;;;4.27;;
15398;SDS011;7797;51.428;6.756;2024-01-25T05:13:06;19.57;;;4.53;;
15398;SDS011;7797;51.428;6.756;2024-01-25T05:15:33;23.77;;;4.80;;
15398;SDS011;7797;51.428;6.756;2024-01-25T05:18:01;21.67;;;4.30;;
15398;SDS011;7797;51.428;6.756;2024-01-25T05:20:28;18.13;;;5.10;;
15398;SDS011;7797;51.428;6.756;2024-01-25T05:23:00;17.20;;;4.40;;
15398;SDS011;7797;51.428;6.756;2024-01-25T05:25:29;17.80;;;4.93;;
15398;SDS011;7797;51.428;6.756;2024-01-25T05:27:56;15.43;;;4.80;;
15398;SDS011;7797;51.428;6.756;2024-01-25T05:30:24;20.90;;;4.77;;
15398;SDS011;7797;51.428;6.756;2024-01-25T05:32:51;16.70;;;4.57;;
15398;SDS011;7797;51.428;6.756;2024-01-25T05:35:20;11.63;;;4.20;;
15398;SDS011;7797;51.428;6.756;2024-01-25T05:37:47;14.40;;;4.17;;
15398;SDS011;7797;51.428;6.756;2024-01-25T05:40:14;15.47;;;4.77;;
15398;SDS011;7797;51.428;6.756;2024-01-25T05:42:41;22.70;;;5.13;;
15398;SDS011;7797;51.428;6.756;2024-01-25T05:45:08;20.53;;;4.50;;
15398;SDS011;7797;51.428;6.756;2024-01-25T05:47:35;20.60;;;4.73;;
15398;SDS011;7797;51.428;6.756;2024-01-25T05:50:02;16.33;;;5.10;;
15398;SDS011;7797;51.428;6.756;2024-01-25T05:52:31;16.93;;;4.80;;
15398;SDS011;7797;51.428;6.756;2024-01-25T05:54:58;25.90;;;5.53;;
15398;SDS011;7797;51.428;6.756;2024-01-25T05:57:30;18.43;;;5.13;;
15398;SDS011;7797;51.428;6.756;2024-01-25T05:59:58;18.53;;;4.90;;
15398;SDS011;7797;51.428;6.756;2024-01-25T06:02:24;21.07;;;4.60;;
15398;SDS011;7797;51.428;6.756;2024-01-25T06:04:51;27.73;;;4.93;;
15398;SDS011;7797;51.428;6.756;2024-01-25T06:07:18;19.70;;;5.73;;
15398;SDS011;7797;51.428;6.756;2024-01-25T06:09:47;19.57;;;5.10;;
15398;SDS011;7797;51.428;6.756;2024-01-25T06:12:14;17.37;;;4.40;;
15398;SDS011;7797;51.428;6.756;2024-01-25T06:14:40;19.07;;;4.80;;
15398;SDS011;7797;51.428;6.756;2024-01-25T06:17:07;19.97;;;5.00;;
15398;SDS011;7797;51.428;6.756;2024-01-25T06:19:34;21.03;;;4.87;;
15398;SDS011;7797;51.428;6.756;2024-01-25T06:22:01;19.93;;;5.00;;
15398;SDS011;7797;51.428;6.756;2024-01-25T06:24:29;27.93;;;6.93;;
15398;SDS011;7797;51.428;6.756;2024-01-25T06:26:56;16.53;;;5.40;;
15398;SDS011;7797;51.428;6.756;2024-01-25T06:29:28;21.37;;;5.37;;
15398;SDS011;7797;51.428;6.756;2024-01-25T06:31:55;21.07;;;5.27;;
15398;SDS011;7797;51.428;6.756;2024-01-25T06:34:22;27.47;;;4.90;;
15398;SDS011;7797;51.428;6.756;2024-01-25T06:36:49;22.07;;;5.53;;
15398;SDS011;7797;51.428;6.756;2024-01-25T06:39:16;17.57;;;5.30;;
15398;SDS011;7797;51.428;6.756;2024-01-25T06:41:42;22.10;;;5.87;;
15398;SDS011;7797;51.428;6.756;2024-01-25T06:44:09;22.53;;;6.07;;
15398;SDS011;7797;51.428;6.756;2024-01-25T06:46:36;24.63;;;5.10;;
15398;SDS011;7797;51.428;6.756;2024-01-25T06:49:03;17.07;;;5.20;;
15398;SDS011;7797;51.428;6.756;2024-01-25T06:51:30;17.73;;;5.40;;
15398;SDS011;7797;51.428;6.756;2024-01-25T06:53:57;21.70;;;4.60;;
15398;SDS011;7797;51.428;6.756;2024-01-25T06:56:24;20.83;;;4.73;;
15398;SDS011;7797;51.428;6.756;2024-01-25T06:58:50;20.40;;;5.53;;
15398;SDS011;7797;51.428;6.756;2024-01-25T07:01:21;21.37;;;5.60;;
15398;SDS011;7797;51.428;6.756;2024-01-25T07:03:49;25.47;;;5.17;;
15398;SDS011;7797;51.428;6.756;2024-01-25T07:06:18;20.97;;;4.90;;
15398;SDS011;7797;51.428;6.756;2024-01-25T07:08:48;22.33;;;5.10;;
15398;SDS011;7797;51.428;6.756;2024-01-25T07:11:16;22.00;;;5.03;;
15398;SDS011;7797;51.428;6.756;2024-01-25T07:13:43;17.77;;;4.97;;
15398;SDS011;7797;51.428;6.756;2024-01-25T07:16:10;20.13;;;5.63;;
15398;SDS011;7797;51.428;6.756;2024-01-25T07:18:37;21.77;;;5.43;;
15398;SDS011;7797;51.428;6.756;2024-01-25T07:21:04;23.37;;;5.57;;
15398;SDS011;7797;51.428;6.756;2024-01-25T07:23:32;21.50;;;5.43;;
15398;SDS011;7797;51.428;6.756;2024-01-25T07:26:00;22.37;;;5.17;;
15398;SDS011;7797;51.428;6.756;2024-01-25T07:28:26;24.47;;;5.70;;
15398;SDS011;7797;51.428;6.756;2024-01-25T07:30:54;19.27;;;5.17;;
15398;SDS011;7797;51.428;6.756;2024-01-25T07:33:20;22.67;;;5.17;;
15398;SDS011;7797;51.428;6.756;2024-01-25T07:35:53;19.37;;;4.93;;
15398;SDS011;7797;51.428;6.756;2024-01-25T07:38:20;16.13;;;5.13;;
15398;SDS011;7797;51.428;6.756;2024-01-25T07:40:47;21.07;;;5.17;;
15398;SDS011;7797;51.428;6.756;2024-01-25T07:43:14;16.27;;;4.70;;
15398;SDS011;7797;51.428;6.756;2024-01-25T07:45:41;18.43;;;5.10;;
15398;SDS011;7797;51.428;6.756;2024-01-25T07:48:07;20.93;;;4.83;;
15398;SDS011;7797;51.428;6.756;2024-01-25T07:50:41;19.87;;;5.47;;
15398;SDS011;7797;51.428;6.756;2024-01-25T07:53:08;22.17;;;5.70;;
15398;SDS011;7797;51.428;6.756;2024-01-25T07:55:36;28.43;;;5.67;;
15398;SDS011;7797;51.428;6.756;2024-01-25T07:58:03;24.20;;;5.90;;
15398;SDS011;7797;51.428;6.756;2024-01-25T08:00:35;17.27;;;5.50;;
15398;SDS011;7797;51.428;6.756;2024-01-25T08:03:04;21.07;;;6.23;;
15398;SDS011;7797;51.428;6.756;2024-01-25T08:05:32;20.00;;;5.93;;
15398;SDS011;7797;51.428;6.756;2024-01-25T08:08:10;25.63;;;6.10;;
15398;SDS011;7797;51.428;6.756;2024-01-25T08:10:38;28.17;;;6.43;;
15398;SDS011;7797;51.428;6.756;2024-01-25T08:13:05;23.63;;;6.03;;
15398;SDS011;7797;51.428;6.756;2024-01-25T08:15:33;23.87;;;5.50;;
15398;SDS011;7797;51.428;6.756;2024-01-25T08:18:00;20.67;;;5.60;;
15398;SDS011;7797;51.428;6.756;2024-01-25T08:20:28;21.60;;;6.20;;
15398;SDS011;7797;51.428;6.756;2024-01-25T08:22:55;24.03;;;6.20;;
15398;SDS011;7797;51.428;6.756;2024-01-25T08:25:22;25.33;;;5.60;;
15398;SDS011;7797;51.428;6.756;2024-01-25T08:27:50;26.37;;;5.53;;
15398;SDS011;7797;51.428;6.756;2024-01-25T08:30:17;25.23;;;6.23;;
15398;SDS011;7797;51.428;6.756;2024-01-25T08:32:44;21.93;;;6.00;;
15398;SDS011;7797;51.428;6.756;2024-01-25T08:35:11;22.83;;;5.60;;
15398;SDS011;7797;51.428;6.756;2024-01-25T08:37:38;21.27;;;5.80;;
15398;SDS011;7797;51.428;6.756;2024-01-25T08:40:06;22.33;;;6.47;;
15398;SDS011;7797;51.428;6.756;2024-01-25T08:42:35;18.90;;;5.63;;
15398;SDS011;7797;51.428;6.756;2024-01-25T08:45:08;18.67;;;5.40;;
15398;SDS011;7797;51.428;6.756;2024-01-25T08:47:38;23.50;;;6.37;;
15398;SDS011;7797;51.428;6.756;2024-01-25T08:50:05;26.27;;;6.00;;
15398;SDS011;7797;51.428;6.756;2024-01-25T08:52:37;21.73;;;5.63;;
15398;SDS011;7797;51.428;6.756;2024-01-25T08:55:04;17.70;;;5.83;;
15398;SDS011;7797;51.428;6.756;2024-01-25T08:57:31;24.77;;;6.00;;
15398;SDS011;7797;51.428;6.756;2024-01-25T08:59:58;22.23;;;5.47;;
15398;SDS011;7797;51.428;6.756;2024-01-25T09:02:25;21.00;;;5.77;;
15398;SDS011;7797;51.428;6.756;2024-01-25T09:04:54;20.20;;;5.50;;
15398;SDS011;7797;51.428;6.756;2024-01-25T09:07:21;20.20;;;5.77;;
15398;SDS011;7797;51.428;6.756;2024-01-25T09:09:48;23.90;;;6.37;;
15398;SDS011;7797;51.428;6.756;2024-01-25T09:12:15;22.03;;;5.60;;
15398;SDS011;7797;51.428;6.756;2024-01-25T09:14:42;24.10;;;6.77;;
15398;SDS011;7797;51.428;6.756;2024-01-25T09:17:09;23.77;;;5.90;;
15398;SDS011;7797;51.428;6.756;2024-01-25T09:19:36;26.23;;;6.20;;
15398;SDS011;7797;51.428;6.756;2024-01-25T09:22:03;24.07;;;6.77;;
15398;SDS011;7797;51.428;6.756;2024-01-25T09:24:31;28.10;;;7.10;;
15398;SDS011;7797;51.428;6.756;2024-01-25T09:26:59;23.23;;;6.63;;
15398;SDS011;7797;51.428;6.756;2024-01-25T09:29:26;33.37;;;7.00;;
15398;SDS011;7797;51.428;6.756;2024-01-25T09:31:54;21.80;;;6.70;;
15398;SDS011;7797;51.428;6.756;2024-01-25T09:34:21;21.37;;;6.63;;
15398;SDS011;7797;51.428;6.756;2024-01-25T09:36:48;22.83;;;6.43;;
15398;SDS011;7797;51.428;6.756;2024-01-25T09:39:15;25.17;;;7.23;;
15398;SDS011;7797;51.428;6.756;2024-01-25T09:41:42;23.43;;;6.80;;
15398;SDS011;7797;51.428;6.756;2024-01-25T09:44:11;22.27;;;7.73;;
15398;SDS011;7797;51.428;6.756;2024-01-25T09:46:37;20.27;;;7.63;;
15398;SDS011;7797;51.428;6.756;2024-01-25T09:49:05;21.00;;;7.07;;
15398;SDS011;7797;51.428;6.756;2024-01-25T09:51:37;22.37;;;8.40;;
15398;SDS011;7797;51.428;6.756;2024-01-25T09:54:06;25.70;;;7.87;;
15398;SDS011;7797;51.428;6.756;2024-01-25T09:56:33;30.00;;;8.77;;
15398;SDS011;7797;51.428;6.756;2024-01-25T09:59:00;19.70;;;7.23;;
15398;SDS011;7797;51.428;6.756;2024-01-25T10:01:28;19.60;;;7.17;;
15398;SDS011;7797;51.428;6.756;2024-01-25T10:03:55;27.53;;;8.67;;
15398;SDS011;7797;51.428;6.756;2024-01-25T10:06:23;25.13;;;8.40;;
15398;SDS011;7797;51.428;6.756;2024-01-25T10:08:50;29.20;;;9.33;;
15398;SDS011;7797;51.428;6.756;2024-01-25T10:11:18;26.37;;;8.87;;
15398;SDS011;7797;51.428;6.756;2024-01-25T10:13:45;23.67;;;9.47;;
15398;SDS011;7797;51.428;6.756;2024-01-25T10:16:18;25.23;;;9.47;;
15398;SDS011;7797;51.428;6.756;2024-01-25T10:18:46;29.93;;;9.50;;
15398;SDS011;7797;51.428;6.756;2024-01-25T10:21:15;24.57;;;9.37;;
15398;SDS011;7797;51.428;6.756;2024-01-25T10:23:44;26.47;;;9.80;;
15398;SDS011;7797;51.428;6.756;2024-01-25T10:26:13;28.00;;;9.43;;
15398;SDS011;7797;51.428;6.756;2024-01-25T10:28:40;23.37;;;9.57;;
15398;SDS011;7797;51.428;6.756;2024-01-25T10:31:07;30.43;;;10.23;;
15398;SDS011;7797;51.428;6.756;2024-01-25T10:33:35;22.80;;;9.37;;
15398;SDS011;7797;51.428;6.756;2024-01-25T10:36:05;25.87;;;11.23;;
15398;SDS011;7797;51.428;6.756;2024-01-25T10:38:35;25.93;;;10.40;;
15398;SDS011;7797;51.428;6.756;2024-01-25T10:41:04;24.63;;;10.67;;
15398;SDS011;7797;51.428;6.756;2024-01-25T10:43:32;25.60;;;10.63;;
15398;SDS011;7797;51.428;6.756;2024-01-25T10:46:00;33.40;;;11.43;;
15398;SDS011;7797;51.428;6.756;2024-01-25T10:48:30;27.33;;;11.07;;
15398;SDS011;7797;51.428;6.756;2024-01-25T10:50:58;32.53;;;12.23;;
15398;SDS011;7797;51.428;6.756;2024-01-25T10:53:30;27.43;;;11.50;;
15398;SDS011;7797;51.428;6.756;2024-01-25T10:55:58;24.57;;;11.87;;
15398;SDS011;7797;51.428;6.756;2024-01-25T10:58:29;27.07;;;11.40;;
15398;SDS011;7797;51.428;6.756;2024-01-25T11:01:02;32.23;;;11.13;;
15398;SDS011;7797;51.428;6.756;2024-01-25T11:03:30;30.80;;;11.33;;
15398;SDS011;7797;51.428;6.756;2024-01-25T11:06:07;25.70;;;11.13;;
15398;SDS011;7797;51.428;6.756;2024-01-25T11:08:39;23.93;;;11.57;;
15398;SDS011;7797;51.428;6.756;2024-01-25T11:11:15;32.60;;;12.83;;
15398;SDS011;7797;51.428;6.756;2024-01-25T11:13:42;34.43;;;12.40;;
15398;SDS011;7797;51.428;6.756;2024-01-25T11:16:24;31.50;;;12.43;;
15398;SDS011;7797;51.428;6.756;2024-01-25T11:18:55;28.87;;;11.03;;
15398;SDS011;7797;51.428;6.756;2024-01-25T11:21:39;23.70;;;11.70;;
15398;SDS011;7797;51.428;6.756;2024-01-25T11:24:19;33.73;;;12.53;;
15398;SDS011;7797;51.428;6.756;2024-01-25T11:26:48;29.77;;;11.13;;
15398;SDS011;7797;51.428;6.756;2024-01-25T11:29:16;22.30;;;10.60;;
15398;SDS011;7797;51.428;6.756;2024-01-25T11:31:44;30.90;;;11.60;;
15398;SDS011;7797;51.428;6.756;2024-01-25T11:34:13;27.57;;;11.77;;
15398;SDS011;7797;51.428;6.756;2024-01-25T11:36:42;25.63;;;11.20;;
15398;SDS011;7797;51.428;6.756;2024-01-25T11:39:10;23.93;;;9.83;;
15398;SDS011;7797;51.428;6.756;2024-01-25T11:41:42;27.23;;;10.73;;
15398;SDS011;7797;51.428;6.756;2024-01-25T11:44:10;22.90;;;9.47;;
15398;SDS011;7797;51.428;6.756;2024-01-25T11:46:37;22.10;;;9.87;;
15398;SDS011;7797;51.428;6.756;2024-01-25T11:49:04;30.27;;;10.53;;
15398;SDS011;7797;51.428;6.756;2024-01-25T11:51:33;28.97;;;9.57;;
15398;SDS011;7797;51.428;6.756;2024-01-25T11:54:01;29.10;;;10.00;;
15398;SDS011;7797;51.428;6.756;2024-01-25T11:56:29;29.03;;;10.77;;
15398;SDS011;7797;51.428;6.756;2024-01-25T11:58:57;27.80;;;10.53;;
15398;SDS011;7797;51.428;6.756;2024-01-25T12:01:24;29.73;;;10.83;;
15398;SDS011;7797;51.428;6.756;2024-01-25T12:03:52;31.73;;;11.30;;
15398;SDS011;7797;51.428;6.756;2024-01-25T12:06:20;29.40;;;10.27;;
15398;SDS011;7797;51.428;6.756;2024-01-25T12:08:47;32.53;;;10.20;;
15398;SDS011;7797;51.428;6.756;2024-01-25T12:11:18;26.67;;;10.10;;
15398;SDS011;7797;51.428;6.756;2024-01-25T12:13:45;34.00;;;9.87;;
15398;SDS011;7797;51.428;6.756;2024-01-25T12:16:12;29.97;;;9.40;;
15398;SDS011;7797;51.428;6.756;2024-01-25T12:18:40;25.57;;;9.17;;
15398;SDS011;7797;51.428;6.756;2024-01-25T12:21:08;31.33;;;9.23;;
15398;SDS011;7797;51.428;6.756;2024-01-25T12:23:39;24.57;;;9.30;;
15398;SDS011;7797;51.428;6.756;2024-01-25T12:26:07;27.23;;;10.27;;
15398;SDS011;7797;51.428;6.756;2024-01-25T12:28:35;28.33;;;10.37;;
15398;SDS011;7797;51.428;6.756;2024-01-25T12:31:03;29.47;;;10.23;;
15398;SDS011;7797;51.428;6.756;2024-01-25T12:33:31;25.70;;;10.10;;
15398;SDS011;7797;51.428;6.756;2024-01-25T12:35:59;29.03;;;10.27;;
15398;SDS011;7797;51.428;6.756;2024-01-25T12:38:27;22.60;;;9.30;;
15398;SDS011;7797;51.428;6.756;2024-01-25T12:40:54;30.57;;;10.20;;
15398;SDS011;7797;51.428;6.756;2024-01-25T12:43:21;29.00;;;10.13;;
15398;SDS011;7797;51.428;6.756;2024-01-25T12:45:49;32.43;;;9.93;;
15398;SDS011;7797;51.428;6.756;2024-01-25T12:48:18;26.33;;;10.80;;
15398;SDS011;7797;51.428;6.756;2024-01-25T12:50:45;30.13;;;10.50;;
15398;SDS011;7797;51.428;6.756;2024-01-25T12:53:12;39.63;;;11.37;;
15398;SDS011;7797;51.428;6.756;2024-01-25T12:55:39;25.90;;;10.00;;
15398;SDS011;7797;51.428;6.756;2024-01-25T12:58:06;26.47;;;10.37;;
15398;SDS011;7797;51.428;6.756;2024-01-25T13:00:33;24.07;;;9.63;;
15398;SDS011;7797;51.428;6.756;2024-01-25T13:03:01;31.17;;;10.97;;
15398;SDS011;7797;51.428;6.756;2024-01-25T13:05:29;31.97;;;10.77;;
15398;SDS011;7797;51.428;6.756;2024-01-25T13:07:56;29.17;;;10.87;;
15398;SDS011;7797;51.428;6.756;2024-01-25T13:10:23;30.73;;;11.30;;
15398;SDS011;7797;51.428;6.756;2024-01-25T13:12:49;33.27;;;11.83;;
15398;SDS011;7797;51.428;6.756;2024-01-25T13:15:17;32.47;;;11.93;;
15398;SDS011;7797;51.428;6.756;2024-01-25T13:17:44;27.17;;;11.27;;
15398;SDS011;7797;51.428;6.756;2024-01-25T13:20:11;29.50;;;11.80;;
15398;SDS011;7797;51.428;6.756;2024-01-25T13:22:38;37.70;;;11.90;;
15398;SDS011;7797;51.428;6.756;2024-01-25T13:25:05;33.73;;;13.13;;
15398;SDS011;7797;51.428;6.756;2024-01-25T13:27:32;33.97;;;11.57;;
15398;SDS011;7797;51.428;6.756;2024-01-25T13:29:59;30.53;;;12.53;;
15398;SDS011;7797;51.428;6.756;2024-01-25T13:32:26;32.10;;;11.73;;
15398;SDS011;7797;51.428;6.756;2024-01-25T13:34:53;34.43;;;11.87;;
15398;SDS011;7797;51.428;6.756;2024-01-25T13:37:20;33.80;;;13.47;;
15398;SDS011;7797;51.428;6.756;2024-01-25T13:39:46;26.43;;;11.27;;
15398;SDS011;7797;51.428;6.756;2024-01-25T13:42:13;31.37;;;12.53;;
15398;SDS011;7797;51.428;6.756;2024-01-25T13:44:40;32.33;;;12.10;;
15398;SDS011;7797;51.428;6.756;2024-01-25T13:47:07;27.37;;;11.50;;
15398;SDS011;7797;51.428;6.756;2024-01-25T13:49:34;30.63;;;12.57;;
15398;SDS011;7797;51.428;6.756;2024-01-25T13:52:02;26.40;;;12.50;;
15398;SDS011;7797;51.428;6.756;2024-01-25T13:54:32;27.97;;;11.13;;
15398;SDS011;7797;51.428;6.756;2024-01-25T13:57:00;31.83;;;11.80;;
15398;SDS011;7797;51.428;6.756;2024-01-25T13:59:27;34.20;;;12.77;;
15398;SDS011;7797;51.428;6.756;2024-01-25T14:01:54;30.97;;;12.00;;
15398;SDS011;7797;51.428;6.756;2024-01-25T14:04:21;34.00;;;12.20;;
15398;SDS011;7797;51.428;6.756;2024-01-25T14:06:48;34.43;;;12.87;;
15398;SDS011;7797;51.428;6.756;2024-01-25T14:09:15;31.60;;;11.80;;
15398;SDS011;7797;51.428;6.756;2024-01-25T14:11:42;36.23;;;12.47;;
15398;SDS011;7797;51.428;6.756;2024-01-25T14:14:09;28.17;;;12.43;;
15398;SDS011;7797;51.428;6.756;2024-01-25T14:16:36;29.60;;;12.60;;
15398;SDS011;7797;51.428;6.756;2024-01-25T14:19:03;31.90;;;12.03;;
15398;SDS011;7797;51.428;6.756;2024-01-25T14:21:31;28.47;;;11.33;;
15398;SDS011;7797;51.428;6.756;2024-01-25T14:23:58;33.50;;;12.27;;
15398;SDS011;7797;51.428;6.756;2024-01-25T14:26:25;25.23;;;11.20;;
15398;SDS011;7797;51.428;6.756;2024-01-25T14:28:52;28.77;;;11.50;;
15398;SDS011;7797;51.428;6.756;2024-01-25T14:31:19;33.10;;;11.60;;
15398;SDS011;7797;51.428;6.756;2024-01-25T14:33:46;25.43;;;10.73;;
15398;SDS011;7797;51.428;6.756;2024-01-25T14:36:13;33.53;;;11.60;;
15398;SDS011;7797;51.428;6.756;2024-01-25T14:38:41;29.00;;;11.07;;
15398;SDS011;7797;51.428;6.756;2024-01-25T14:41:11;27.57;;;10.97;;
15398;SDS011;7797;51.428;6.756;2024-01-25T14:43:38;27.40;;;10.20;;
15398;SDS011;7797;51.428;6.756;2024-01-25T14:46:06;30.43;;;10.40;;
15398;SDS011;7797;51.428;6.756;2024-01-25T14:48:34;24.40;;;9.97;;